createdAt,value
2024-01-18T00:02:43.129Z,-24.65
2024-01-18T00:05:50.089Z,-24.10
2024-01-18T00:08:57.724Z,-24.06
2024-01-18T00:12:04.371Z,-23.89
2024-01-18T00:15:14.731Z,-23.56
2024-01-18T00:18:21.891Z,-22.69
2024-01-18T00:21:28.837Z,-21.46
2024-01-18T00:24:36.019Z,-20.65
2024-01-18T00:27:43.425Z,-20.53
2024-01-18T00:30:52.439Z,-19.52
2024-01-18T00:34:00.725Z,-19.67
2024-01-18T00:37:08.052Z,-19.39
2024-01-18T00:40:16.945Z,-18.72
2024-01-18T00:43:25.475Z,-18.43
2024-01-18T00:46:34.380Z,-18.18
2024-01-18T00:49:42.189Z,-17.85
2024-01-18T00:52:48.978Z,-17.25
2024-01-18T00:55:59.000Z,-16.52
2024-01-18T00:59:05.912Z,-16.31
2024-01-18T01:02:15.227Z,-15.99
2024-01-18T01:05:22.086Z,-15.68
2024-01-18T01:08:29.051Z,-15.67
2024-01-18T01:11:35.727Z,-15.21
2024-01-18T01:14:43.113Z,-14.36
2024-01-18T01:17:51.415Z,-14.20
2024-01-18T01:20:58.175Z,-14.00
2024-01-18T01:24:05.222Z,-13.61
2024-01-18T01:27:12.508Z,-14.30
2024-01-18T01:30:19.494Z,-13.67
2024-01-18T01:33:28.093Z,-14.11
2024-01-18T01:36:34.881Z,-14.05
2024-01-18T01:39:41.769Z,-14.60
2024-01-18T01:42:48.863Z,-14.36
2024-01-18T01:45:56.387Z,-13.92
2024-01-18T01:49:07.137Z,-13.83
2024-01-18T01:52:15.943Z,-13.69
2024-01-18T01:55:24.717Z,-13.89
2024-01-18T01:58:32.329Z,-13.40
2024-01-18T02:01:39.863Z,-14.39
2024-01-18T02:04:49.772Z,-14.36
2024-01-18T02:07:58.622Z,-14.03
2024-01-18T02:11:08.585Z,-13.41
2024-01-18T02:14:16.754Z,-12.92
2024-01-18T02:17:24.379Z,-13.17
2024-01-18T02:20:36.306Z,-13.84
2024-01-18T02:23:49.869Z,-14.79
2024-01-18T02:26:59.074Z,-14.23
2024-01-18T02:30:05.873Z,-14.56
2024-01-18T02:33:13.851Z,-14.84
2024-01-18T02:36:23.016Z,-14.44
2024-01-18T02:39:30.600Z,-14.13
2024-01-18T02:42:39.452Z,-13.69
2024-01-18T02:45:46.712Z,-14.27
2024-01-18T02:48:53.288Z,-14.19
2024-01-18T02:52:00.192Z,-14.84
2024-01-18T02:55:08.701Z,-15.39
2024-01-18T02:58:17.100Z,-14.89
2024-01-18T03:01:25.150Z,-15.12
2024-01-18T03:04:33.562Z,-14.72
2024-01-18T03:07:40.993Z,-14.79
2024-01-18T03:10:54.540Z,-14.65
2024-01-18T03:14:15.876Z,-14.85
2024-01-18T03:17:22.811Z,-14.60
2024-01-18T03:20:30.823Z,-14.41
2024-01-18T03:23:40.144Z,-14.62
2024-01-18T03:26:50.615Z,-14.95
2024-01-18T03:30:02.182Z,-14.58
2024-01-18T03:33:09.865Z,-14.92
2024-01-18T03:36:17.839Z,-14.45
2024-01-18T03:39:26.541Z,-14.57
2024-01-18T03:42:33.799Z,-14.19
2024-01-18T03:45:43.186Z,-14.74
2024-01-18T03:48:50.212Z,-15.52
2024-01-18T03:51:57.018Z,-15.14
2024-01-18T03:55:03.907Z,-15.40
2024-01-18T03:58:10.892Z,-15.78
2024-01-18T04:01:19.563Z,-15.32
2024-01-18T04:04:26.772Z,-14.72
2024-01-18T04:07:43.284Z,-15.47
2024-01-18T04:10:50.557Z,-15.36
2024-01-18T04:13:57.676Z,-15.19
2024-01-18T04:17:06.347Z,-15.06
2024-01-18T04:20:22.331Z,-15.32
2024-01-18T04:23:29.447Z,-16.07
2024-01-18T04:26:39.286Z,-15.58
2024-01-18T04:29:46.446Z,-15.73
2024-01-18T04:32:55.083Z,-15.49
2024-01-18T04:36:02.658Z,-15.74
2024-01-18T04:39:11.529Z,-16.05
2024-01-18T04:42:18.839Z,-15.81
2024-01-18T04:45:25.666Z,-16.03
2024-01-18T04:48:40.400Z,-15.59
2024-01-18T04:51:47.427Z,-15.64
2024-01-18T04:54:55.296Z,-15.11
2024-01-18T04:58:02.785Z,-15.33
2024-01-18T05:01:10.182Z,-15.89
2024-01-18T05:04:22.182Z,-15.98
2024-01-18T05:07:29.554Z,-15.75
2024-01-18T05:10:36.755Z,-15.64
2024-01-18T05:13:43.898Z,-16.03
2024-01-18T05:16:53.367Z,-16.09
2024-01-18T05:20:02.750Z,-16.33
2024-01-18T05:23:09.699Z,-15.71
2024-01-18T05:26:16.956Z,-15.64
2024-01-18T05:29:23.915Z,-16.12
2024-01-18T05:32:31.348Z,-16.36
2024-01-18T05:35:40.694Z,-15.86
2024-01-18T05:38:47.679Z,-15.75
2024-01-18T05:41:54.733Z,-16.34
2024-01-18T05:45:02.490Z,-16.57
2024-01-18T05:48:10.868Z,-16.22
2024-01-18T05:51:20.050Z,-15.74
2024-01-18T05:54:27.131Z,-16.62
2024-01-18T05:57:39.591Z,-16.54
2024-01-18T06:00:46.871Z,-16.20
2024-01-18T06:03:53.468Z,-16.37
2024-01-18T06:07:03.537Z,-16.17
2024-01-18T06:10:11.002Z,-15.88
2024-01-18T06:13:17.736Z,-16.44
2024-01-18T06:16:24.660Z,-16.60
2024-01-18T06:19:31.918Z,-16.19
2024-01-18T06:22:40.801Z,-16.87
2024-01-18T06:25:48.128Z,-16.83
2024-01-18T06:28:54.693Z,-17.12
2024-01-18T06:32:03.380Z,-17.12
2024-01-18T06:35:11.950Z,-16.92
2024-01-18T06:38:22.269Z,-16.90
2024-01-18T06:41:29.929Z,-17.00
2024-01-18T06:44:37.285Z,-17.01
2024-01-18T06:47:44.618Z,-16.99
2024-01-18T06:50:51.830Z,-16.90
2024-01-18T06:54:00.698Z,-16.41
2024-01-18T06:57:09.022Z,-16.74
2024-01-18T07:00:17.643Z,-17.33
2024-01-18T07:03:24.289Z,-16.89
2024-01-18T07:06:31.541Z,-17.30
2024-01-18T07:09:40.724Z,-17.36
2024-01-18T07:12:48.312Z,-17.41
2024-01-18T07:15:56.549Z,-17.33
2024-01-18T07:19:05.064Z,-17.78
2024-01-18T07:22:12.788Z,-17.64
2024-01-18T07:25:21.423Z,-17.58
2024-01-18T07:28:28.118Z,-17.65
2024-01-18T07:31:35.584Z,-17.74
2024-01-18T07:34:42.630Z,-17.91
2024-01-18T07:37:49.623Z,-18.07
2024-01-18T07:40:57.845Z,-18.11
2024-01-18T07:44:05.553Z,-18.45
2024-01-18T07:47:14.219Z,-18.46
2024-01-18T07:50:33.550Z,-18.52
2024-01-18T07:53:43.753Z,-19.01
2024-01-18T07:56:52.889Z,-18.72
2024-01-18T07:59:59.870Z,-18.86
2024-01-18T08:03:07.764Z,-18.82
2024-01-18T08:06:15.973Z,-18.60
2024-01-18T08:09:24.365Z,-18.97
2024-01-18T08:12:33.458Z,-18.84
2024-01-18T08:15:43.299Z,-19.09
2024-01-18T08:18:51.424Z,-19.18
2024-01-18T08:22:06.155Z,-19.09
2024-01-18T08:25:24.228Z,-19.29
2024-01-18T08:28:34.109Z,-19.30
2024-01-18T08:31:42.352Z,-19.38
2024-01-18T08:34:49.624Z,-19.42
2024-01-18T08:37:56.714Z,-19.55
2024-01-18T08:41:04.066Z,-19.63
2024-01-18T08:44:12.544Z,-19.81
2024-01-18T08:47:21.178Z,-19.83
2024-01-18T08:50:28.318Z,-19.72
2024-01-18T08:53:41.161Z,-19.82
2024-01-18T08:56:49.099Z,-19.93
2024-01-18T08:59:57.516Z,-19.99
2024-01-18T09:03:04.423Z,-20.13
2024-01-18T09:06:12.306Z,-20.32
2024-01-18T09:09:19.301Z,-20.43
2024-01-18T09:12:26.534Z,-20.74
2024-01-18T09:15:37.111Z,-20.77
2024-01-18T09:18:56.278Z,-20.74
2024-01-18T09:22:11.743Z,-21.13
2024-01-18T09:25:19.194Z,-21.23
2024-01-18T09:28:26.087Z,-21.54
2024-01-18T09:31:41.433Z,-21.62
2024-01-18T09:34:50.376Z,-21.59
2024-01-18T09:37:58.067Z,-21.55
2024-01-18T09:41:09.934Z,-22.21
2024-01-18T09:44:17.938Z,-22.10
2024-01-18T09:47:28.064Z,-21.95
2024-01-18T09:50:37.712Z,-21.75
2024-01-18T09:53:50.613Z,-21.78
2024-01-18T09:57:01.220Z,-21.95
2024-01-18T10:00:11.420Z,-22.28
2024-01-18T10:03:21.212Z,-22.74
2024-01-18T10:06:28.944Z,-22.80
2024-01-18T10:09:36.377Z,-22.90
2024-01-18T10:12:47.060Z,-22.88
2024-01-18T10:15:53.861Z,-22.52
2024-01-18T10:19:04.069Z,-23.14
2024-01-18T10:22:13.925Z,-22.51
2024-01-18T10:25:21.335Z,-22.68
2024-01-18T10:28:28.297Z,-23.27
2024-01-18T10:31:35.470Z,-23.15
2024-01-18T10:34:44.557Z,-23.39
2024-01-18T10:37:51.798Z,-23.96
2024-01-18T10:41:01.640Z,-23.93
2024-01-18T10:44:10.389Z,-24.01
2024-01-18T10:47:19.409Z,-23.33
2024-01-18T10:50:28.292Z,-23.70
2024-01-18T10:53:35.826Z,-23.81
2024-01-18T10:56:43.539Z,-24.29
2024-01-18T10:59:57.335Z,-24.00
2024-01-18T11:03:05.230Z,-23.86
2024-01-18T11:06:15.789Z,-24.69
2024-01-18T11:09:24.874Z,-25.20
2024-01-18T11:12:32.087Z,-24.70
2024-01-18T11:15:39.258Z,-25.14
2024-01-18T11:18:52.848Z,-24.83
2024-01-18T11:22:01.466Z,-24.83
2024-01-18T11:25:11.082Z,-25.16
2024-01-18T11:28:27.732Z,-24.85
2024-01-18T11:31:51.547Z,-25.63
2024-01-18T11:35:11.582Z,-25.65
2024-01-18T11:38:23.367Z,-25.38
2024-01-18T11:41:31.793Z,-25.29
2024-01-18T11:44:39.397Z,-25.35
2024-01-18T11:47:48.587Z,-25.39
2024-01-18T11:50:56.043Z,-25.49
2024-01-18T11:54:06.357Z,-25.79
2024-01-18T11:57:17.188Z,-25.81
2024-01-18T12:00:25.052Z,-26.04
2024-01-18T12:03:32.120Z,-25.85
2024-01-18T12:06:39.532Z,-26.45
2024-01-18T12:09:51.149Z,-26.56
2024-01-18T12:12:58.548Z,-26.17
2024-01-18T12:16:06.424Z,-26.83
2024-01-18T12:19:14.942Z,-26.66
2024-01-18T12:22:24.737Z,-26.86
2024-01-18T12:25:35.853Z,-27.14
2024-01-18T12:28:42.825Z,-27.30
2024-01-18T12:31:50.344Z,-27.22
2024-01-18T12:34:59.614Z,-27.47
2024-01-18T12:38:07.490Z,-27.20
2024-01-18T12:41:19.648Z,-27.29
2024-01-18T12:44:27.372Z,-27.36
2024-01-18T12:47:35.353Z,-27.82
2024-01-18T12:50:42.287Z,-27.53
2024-01-18T12:53:49.209Z,-27.12
2024-01-18T12:57:02.312Z,-27.23
2024-01-18T13:00:13.664Z,-27.12
2024-01-18T13:03:20.678Z,-27.20
2024-01-18T13:06:28.099Z,-27.65
2024-01-18T13:09:36.193Z,-28.05
2024-01-18T13:12:45.829Z,-28.06
2024-01-18T13:15:52.636Z,-27.56
2024-01-18T13:19:04.561Z,-28.11
2024-01-18T13:22:11.686Z,-28.44
2024-01-18T13:25:20.337Z,-28.21
2024-01-18T13:28:32.023Z,-28.35
2024-01-18T13:31:40.319Z,-28.19
2024-01-18T13:34:47.784Z,-27.86
2024-01-18T13:37:55.304Z,-27.79
2024-01-18T13:41:02.994Z,-27.78
2024-01-18T13:44:11.680Z,-27.94
2024-01-18T13:47:18.836Z,-27.64
2024-01-18T13:50:25.275Z,-28.28
2024-01-18T13:53:32.641Z,-28.47
2024-01-18T13:56:39.826Z,-29.23
2024-01-18T13:59:48.515Z,-29.36
2024-01-18T14:02:55.613Z,-29.40
2024-01-18T14:06:02.695Z,-28.49
2024-01-18T14:09:10.273Z,-28.53
2024-01-18T14:12:17.281Z,-28.78
2024-01-18T14:15:30.164Z,-28.43
2024-01-18T14:18:38.271Z,-28.74
2024-01-18T14:21:46.093Z,-28.54
2024-01-18T14:24:53.376Z,-28.58
2024-01-18T14:28:02.643Z,-29.00
2024-01-18T14:31:12.646Z,-28.97
2024-01-18T14:34:21.121Z,-29.13
2024-01-18T14:37:28.551Z,-28.82
2024-01-18T14:40:36.201Z,-29.21
2024-01-18T14:43:43.183Z,-29.12
2024-01-18T14:46:54.096Z,-28.74
2024-01-18T14:50:01.032Z,-28.64
2024-01-18T14:53:08.668Z,-29.18
2024-01-18T14:56:15.843Z,-28.83
2024-01-18T14:59:23.328Z,-29.06
2024-01-18T15:02:33.304Z,-29.80
2024-01-18T15:05:41.048Z,-29.79
2024-01-18T15:08:49.082Z,-29.55
2024-01-18T15:11:56.222Z,-29.64
2024-01-18T15:15:02.872Z,-29.57
2024-01-18T15:18:11.983Z,-30.02
2024-01-18T15:21:19.029Z,-30.18
2024-01-18T15:24:25.889Z,-30.35
2024-01-18T15:27:33.566Z,-29.91
2024-01-18T15:30:40.274Z,-30.02
2024-01-18T15:33:50.050Z,-30.00
2024-01-18T15:36:58.595Z,-30.18
2024-01-18T15:40:08.067Z,-30.08
2024-01-18T15:43:15.269Z,-30.02
2024-01-18T15:46:24.513Z,-30.43
2024-01-18T15:49:34.182Z,-30.27
2024-01-18T15:52:44.249Z,-30.40
2024-01-18T15:55:52.230Z,-30.28
2024-01-18T15:59:00.336Z,-30.71
2024-01-18T16:02:08.444Z,-30.59
2024-01-18T16:05:18.183Z,-30.84
2024-01-18T16:08:26.107Z,-30.90
2024-01-18T16:11:32.967Z,-31.06
2024-01-18T16:14:44.964Z,-30.87
2024-01-18T16:17:51.980Z,-30.17
2024-01-18T16:21:00.664Z,-30.15
2024-01-18T16:24:10.240Z,-30.32
2024-01-18T16:27:19.366Z,-30.08
2024-01-18T16:30:30.296Z,-30.31
2024-01-18T16:33:38.787Z,-30.30
2024-01-18T16:36:47.040Z,-31.23
2024-01-18T16:39:55.228Z,-31.16
2024-01-18T16:43:02.840Z,-31.07
2024-01-18T16:46:10.591Z,-31.34
2024-01-18T16:49:17.722Z,-31.17
2024-01-18T16:52:27.130Z,-30.86
2024-01-18T16:55:35.020Z,-30.88
2024-01-18T16:58:41.628Z,-30.83
2024-01-18T17:01:48.841Z,-30.61
2024-01-18T17:04:56.189Z,-30.68
2024-01-18T17:08:06.855Z,-30.93
2024-01-18T17:11:20.228Z,-30.99
2024-01-18T17:14:27.879Z,-30.56
2024-01-18T17:17:34.846Z,-31.31
2024-01-18T17:20:42.941Z,-31.14
2024-01-18T17:23:51.226Z,-30.85
2024-01-18T17:26:58.952Z,-30.79
2024-01-18T17:30:06.289Z,-31.14
2024-01-18T17:33:14.065Z,-30.99
2024-01-18T17:36:21.798Z,-30.99
2024-01-18T17:39:30.809Z,-30.99
2024-01-18T17:42:38.504Z,-31.47
2024-01-18T17:45:46.616Z,-31.45
2024-01-18T17:48:58.860Z,-31.40
2024-01-18T17:52:07.044Z,-31.48
2024-01-18T17:55:15.502Z,-31.32
2024-01-18T17:58:22.488Z,-31.23
2024-01-18T18:01:29.884Z,-31.18
2024-01-18T18:04:37.516Z,-31.67
2024-01-18T18:07:44.967Z,-31.56
2024-01-18T18:10:53.535Z,-31.10
2024-01-18T18:14:00.265Z,-31.57
2024-01-18T18:17:07.569Z,-31.62
2024-01-18T18:20:15.300Z,-31.62
2024-01-18T18:23:22.794Z,-32.09
2024-01-18T18:26:31.748Z,-32.73
2024-01-18T18:29:38.986Z,-32.58
2024-01-18T18:32:45.992Z,-32.67
2024-01-18T18:35:53.382Z,-32.72
2024-01-18T18:39:00.874Z,-32.93
2024-01-18T18:42:10.600Z,-32.49
2024-01-18T18:45:17.925Z,-32.31
2024-01-18T18:48:24.890Z,-32.28
2024-01-18T18:51:31.905Z,-32.02
2024-01-18T18:54:39.038Z,-31.59
2024-01-18T18:57:47.892Z,-31.65
2024-01-18T19:00:54.607Z,-31.95
2024-01-18T19:04:09.120Z,-32.55
2024-01-18T19:07:19.905Z,-32.29
2024-01-18T19:10:27.565Z,-32.09
2024-01-18T19:13:36.202Z,-32.49
2024-01-18T19:16:43.329Z,-32.40
2024-01-18T19:19:51.037Z,-32.93
2024-01-18T19:22:58.077Z,-32.49
2024-01-18T19:26:09.501Z,-32.73
2024-01-18T19:29:22.943Z,-32.74
2024-01-18T19:32:30.515Z,-32.38
2024-01-18T19:35:37.520Z,-32.22
2024-01-18T19:38:45.165Z,-32.79
2024-01-18T19:41:52.756Z,-32.75
2024-01-18T19:45:06.379Z,-32.79
2024-01-18T19:48:16.515Z,-32.79
2024-01-18T19:51:23.805Z,-32.92
2024-01-18T19:54:36.376Z,-32.75
2024-01-18T19:57:45.514Z,-31.99
2024-01-18T20:00:56.804Z,-31.61
2024-01-18T20:04:06.819Z,-31.82
2024-01-18T20:07:14.294Z,-31.59
2024-01-18T20:10:23.170Z,-32.09
2024-01-18T20:13:30.817Z,-32.60
2024-01-18T20:16:40.468Z,-32.25
2024-01-18T20:19:47.596Z,-32.47
2024-01-18T20:22:56.912Z,-32.39
2024-01-18T20:26:05.499Z,-32.62
2024-01-18T20:29:14.681Z,-32.71
2024-01-18T20:32:23.928Z,-32.35
2024-01-18T20:35:31.255Z,-32.52
2024-01-18T20:38:38.420Z,-32.48
2024-01-18T20:41:45.557Z,-32.62
2024-01-18T20:44:52.202Z,-32.62
2024-01-18T20:48:00.969Z,-32.40
2024-01-18T20:51:08.290Z,-32.27
2024-01-18T20:54:17.099Z,-32.35
2024-01-18T20:57:24.464Z,-32.08
2024-01-18T21:00:35.610Z,-33.01
2024-01-18T21:03:44.765Z,-33.57
2024-01-18T21:06:51.778Z,-33.21
2024-01-18T21:10:11.282Z,-34.95
2024-01-18T21:13:17.910Z,-33.17
2024-01-18T21:16:25.276Z,-33.18
2024-01-18T21:19:33.930Z,-33.21
2024-01-18T21:22:41.240Z,-33.61
2024-01-18T21:25:47.942Z,-33.76
2024-01-18T21:28:54.735Z,-33.58
2024-01-18T21:32:01.674Z,-33.49
2024-01-18T21:35:11.150Z,-33.24
2024-01-18T21:38:19.927Z,-32.80
2024-01-18T21:41:27.030Z,-33.05
2024-01-18T21:44:35.963Z,-32.96
2024-01-18T21:47:44.171Z,-32.95
2024-01-18T21:50:52.531Z,-32.91
2024-01-18T21:53:59.678Z,-32.72
2024-01-18T21:57:07.270Z,-32.92
2024-01-18T22:00:15.726Z,-32.86
2024-01-18T22:03:23.359Z,-32.57
2024-01-18T22:06:33.193Z,-32.07
2024-01-18T22:09:42.555Z,-31.59
2024-01-18T22:12:50.373Z,-31.79
2024-01-18T22:15:58.321Z,-31.52
2024-01-18T22:19:12.250Z,-31.51
2024-01-18T22:22:27.135Z,-32.18
2024-01-18T22:25:36.312Z,-32.00
2024-01-18T22:28:45.332Z,-31.56
2024-01-18T22:31:51.827Z,-31.38
2024-01-18T22:34:58.791Z,-31.42
2024-01-18T22:38:07.102Z,-32.10
2024-01-18T22:41:13.583Z,-32.34
2024-01-18T22:44:20.965Z,-32.09
2024-01-18T22:47:29.388Z,-31.91
2024-01-18T22:50:39.363Z,-31.95
2024-01-18T22:53:47.564Z,-32.09
2024-01-18T22:56:54.977Z,-31.83
2024-01-18T23:00:02.297Z,-31.82
2024-01-18T23:03:09.616Z,-31.87
2024-01-18T23:06:16.767Z,-31.65
2024-01-18T23:09:25.577Z,-31.87
2024-01-18T23:12:33.126Z,-31.52
2024-01-18T23:15:40.151Z,-31.84
2024-01-18T23:18:47.820Z,-31.66
2024-01-18T23:21:56.615Z,-31.62
2024-01-18T23:25:04.872Z,-31.11
2024-01-18T23:28:12.620Z,-30.84
2024-01-18T23:31:19.755Z,-31.26
2024-01-18T23:34:27.479Z,-31.52
2024-01-18T23:37:34.448Z,-31.03
2024-01-18T23:40:44.642Z,-30.27
2024-01-18T23:43:51.566Z,-29.31
2024-01-18T23:46:58.335Z,-29.03
2024-01-18T23:50:05.492Z,-28.72
2024-01-18T23:53:12.640Z,-28.19
2024-01-18T23:56:25.437Z,-27.36
2024-01-18T23:59:33.259Z,-26.52
